HLLB

Benina International Airport

Benghazi, Libya
METAR HLLB 202330Z 01005KT 8000 SCT020 25/21 Q1012
Observed Flight Rules
Aug-20 @ 23:30 UTC (37 minutes ago) Marginal Visual Flight Rules
Wind Visibility Clouds
10° at 5 knots 7,998 meters
  • Scattered at 2,000' AGL
Temperatures Readings
Current 25°C / 77°F
Dewpoint 21°C / 70°F
Humidity 79%
Altimeter 29.88" Hg
Pressure 1012 hPa
Elevation 132
METAR HLLB 202330Z 01005KT 8000 SCT020 25/21 Q1012
Observed Flight Rules
Aug-20 @ 23:30 UTC
(37 minutes ago)
MVFR
Wind Visibility
10° at 5 knots 7,998 meters
Clouds
  • Scattered at 2,000' AGL
Temperature Dewpoint
25°C / 77°F 21°C / 70°F
Humidity Altimeter Pressure
79% 29.88" Hg 1012 hPa